Time;durP1;ratioP1;P1;durP2;ratioP2;P2;SDS_P1;SDS_P2;PMS_P1;PMS_P2;Temp;Humidity;BMP_temperature;BMP_pressure;BME280_temperature;BME280_humidity;BME280_pressure;Samples;Min_cycle;Max_cycle;Signal;HPM_P1;HPM_P2
2023/09/21 00:00:13;;;;;;;2.92;2.42;;;;;;;16.94;67.64;93701.13;528592;28;935;-41
2023/09/21 00:00:28;;;;;;;2.53;2.17;;;;;;;16.85;67.63;93696.31;528427;28;913;-41
2023/09/21 00:00:45;;;;;;;2.92;2.00;;;;;;;16.92;67.86;93698.94;528453;28;1078;-41
2023/09/21 00:01:03;;;;;;;2.75;2.05;;;;;;;16.92;67.79;93704.53;528587;28;879;-41
2023/09/21 00:01:18;;;;;;;2.55;2.13;;;;;;;16.92;67.96;93703.78;528500;28;840;-41
2023/09/21 00:01:34;;;;;;;3.60;2.33;;;;;;;16.91;67.95;93705.84;528460;28;864;-41
2023/09/21 00:01:52;;;;;;;2.80;2.20;;;;;;;16.91;68.24;93703.06;528466;28;1660;-41
2023/09/21 00:02:08;;;;;;;2.42;2.22;;;;;;;16.91;68.12;93705.84;528474;28;891;-41
2023/09/21 00:02:24;;;;;;;2.57;2.27;;;;;;;16.91;68.11;93705.13;528516;28;808;-41
2023/09/21 00:02:44;;;;;;;2.90;2.50;;;;;;;16.82;68.06;93683.50;528545;28;945;-41
2023/09/21 00:03:00;;;;;;;2.63;2.28;;;;;;;16.90;68.10;93700.84;528484;28;941;-41
2023/09/21 00:03:15;;;;;;;2.95;2.17;;;;;;;16.88;68.03;93707.00;528485;28;812;-41
2023/09/21 00:03:31;;;;;;;2.40;2.10;;;;;;;16.89;68.21;93704.97;528567;28;856;-40
2023/09/21 00:03:48;;;;;;;2.17;1.98;;;;;;;16.87;68.21;93702.03;528514;28;894;-41
2023/09/21 00:04:05;;;;;;;2.42;2.22;;;;;;;16.87;68.34;93699.94;528401;28;931;-41
2023/09/21 00:04:22;;;;;;;2.55;2.35;;;;;;;16.88;68.28;93707.00;528556;28;887;-41
2023/09/21 00:04:38;;;;;;;2.83;2.38;;;;;;;16.88;68.62;93706.28;528466;27;896;-41
2023/09/21 00:04:53;;;;;;;4.57;2.53;;;;;;;16.88;68.75;93706.28;528429;28;921;-41
2023/09/21 00:05:09;;;;;;;4.67;2.60;;;;;;;16.86;68.73;93701.28;528482;28;873;-41
2023/09/21 00:05:29;;;;;;;3.55;2.50;;;;;;;16.85;68.80;93701.88;528368;28;927;-41
2023/09/21 00:05:47;;;;;;;3.30;2.33;;;;;;;16.87;68.92;93699.94;528491;28;829;-41
2023/09/21 00:06:03;;;;;;;2.50;2.05;;;;;;;16.85;68.88;93697.00;528523;28;860;-41
2023/09/21 00:06:19;;;;;;;3.17;2.30;;;;;;;16.86;69.03;93703.34;528447;28;900;-41
2023/09/21 00:06:36;;;;;;;3.83;2.60;;;;;;;16.86;69.00;93698.50;528440;28;828;-41
2023/09/21 00:06:52;;;;;;;4.03;2.72;;;;;;;16.84;68.84;93706.72;528476;28;926;-41
2023/09/21 00:07:08;;;;;;;4.40;2.85;;;;;;;16.82;68.67;93700.25;528596;28;930;-41
2023/09/21 00:07:23;;;;;;;4.83;2.63;;;;;;;16.83;68.93;93702.44;528427;28;1029;-41
2023/09/21 00:07:39;;;;;;;5.60;2.30;;;;;;;16.85;68.78;93707.47;528492;28;931;-41
2023/09/21 00:07:54;;;;;;;4.83;2.40;;;;;;;16.84;68.92;93701.13;528444;28;935;-41
2023/09/21 00:08:11;;;;;;;3.47;2.47;;;;;;;16.83;68.88;93702.44;528467;28;891;-41
2023/09/21 00:08:26;;;;;;;3.10;2.40;;;;;;;16.84;68.78;93700.41;528511;28;967;-41
2023/09/21 00:08:44;;;;;;;3.07;2.43;;;;;;;16.84;68.99;93697.59;528530;28;844;-41
2023/09/21 00:09:00;;;;;;;2.85;2.38;;;;;;;16.85;68.94;93704.66;528527;28;871;-41
2023/09/21 00:09:15;;;;;;;2.30;2.10;;;;;;;16.84;69.14;93705.97;528431;28;774;-41
2023/09/21 00:09:32;;;;;;;2.35;2.15;;;;;;;16.85;68.88;93701.88;528476;28;796;-41
2023/09/21 00:09:47;;;;;;;2.58;2.38;;;;;;;16.85;68.88;93699.09;528554;28;895;-41
2023/09/21 00:10:05;;;;;;;2.92;2.63;;;;;;;16.85;68.79;93701.88;528529;28;793;-41
2023/09/21 00:10:23;;;;;;;3.55;2.55;;;;;;;16.84;68.68;93703.19;528474;28;880;-41
2023/09/21 00:10:39;;;;;;;2.97;2.10;;;;;;;16.84;68.67;93700.41;528610;28;903;-41
2023/09/21 00:10:54;;;;;;;3.67;2.23;;;;;;;16.82;68.52;93694.66;528453;27;820;-41
2023/09/21 00:11:10;;;;;;;4.85;2.38;;;;;;;16.67;68.64;93670.56;528558;28;821;-41
2023/09/21 00:11:26;;;;;;;4.03;2.23;;;;;;;16.84;68.58;93701.13;528483;27;824;-41
2023/09/21 00:11:42;;;;;;;3.95;2.33;;;;;;;16.85;68.62;93699.09;528462;28;898;-41
2023/09/21 00:11:57;;;;;;;4.10;2.40;;;;;;;16.85;68.60;93699.09;528544;28;824;-41
2023/09/21 00:12:13;;;;;;;3.37;2.43;;;;;;;16.85;68.52;93699.09;528405;28;944;-41
2023/09/21 00:12:28;;;;;;;4.72;2.78;;;;;;;16.86;68.55;93697.75;527085;28;1132;-41
2023/09/21 00:12:43;;;;;;;5.03;2.90;;;;;;;16.85;68.61;93702.59;526371;28;834;-41
2023/09/21 00:13:00;;;;;;;3.67;2.60;;;;;;;16.87;68.41;93704.81;526412;28;1044;-41
2023/09/21 00:13:15;;;;;;;3.72;2.47;;;;;;;16.86;68.79;93698.50;526380;28;863;-41
2023/09/21 00:13:32;;;;;;;3.47;2.63;;;;;;;16.86;68.53;93700.53;526345;28;1392;-41
2023/09/21 00:13:47;;;;;;;3.92;2.42;;;;;;;16.85;68.90;93694.22;526372;28;931;-41
2023/09/21 00:14:02;;;;;;;3.37;2.20;;;;;;;16.87;68.77;93699.25;526387;28;845;-41
2023/09/21 00:14:18;;;;;;;2.80;2.40;;;;;;;16.87;68.84;93699.25;526371;28;864;-41
2023/09/21 00:14:33;;;;;;;3.28;2.63;;;;;;;16.86;68.91;93695.72;526343;28;876;-41
2023/09/21 00:14:48;;;;;;;3.10;2.53;;;;;;;16.87;68.92;93696.44;526429;28;799;-41
2023/09/21 00:15:05;;;;;;;3.30;2.43;;;;;;;16.88;68.82;93700.69;526348;28;927;-41
2023/09/21 00:15:21;;;;;;;5.63;2.60;;;;;;;16.87;68.89;93697.16;526322;28;916;-41
2023/09/21 00:15:36;;;;;;;5.63;2.65;;;;;;;16.87;68.74;93690.88;526330;28;808;-41
2023/09/21 00:16:02;;;;;;;3.43;2.40;;;;;;;16.86;68.74;93695.72;526362;28;941;-41
2023/09/21 00:16:18;;;;;;;2.90;2.25;;;;;;;16.86;68.72;93692.19;526353;28;937;-41
2023/09/21 00:16:34;;;;;;;2.38;2.17;;;;;;;16.84;68.78;93703.94;526321;28;920;-41
2023/09/21 00:16:49;;;;;;;2.45;2.25;;;;;;;16.84;68.69;93703.19;526485;28;785;-41
2023/09/21 00:17:04;;;;;;;3.37;2.40;;;;;;;16.82;68.82;93701.00;526334;28;891;-41
2023/09/21 00:17:20;;;;;;;4.30;2.40;;;;;;;16.82;68.82;93703.03;526432;28;809;-41
2023/09/21 00:17:37;;;;;;;3.63;2.40;;;;;;;16.82;68.90;93701.00;526331;28;868;-41
2023/09/21 00:17:54;;;;;;;3.33;2.22;;;;;;;16.82;69.00;93700.25;526423;28;855;-41
2023/09/21 00:18:09;;;;;;;5.30;2.22;;;;;;;16.81;68.90;93701.56;526421;28;880;-41
2023/09/21 00:18:25;;;;;;;4.15;2.38;;;;;;;16.79;68.90;93702.16;526296;28;904;-41
2023/09/21 00:18:44;;;;;;;2.57;2.37;;;;;;;16.80;68.88;93694.53;526412;28;1688;-41
2023/09/21 00:19:02;;;;;;;3.43;2.50;;;;;;;16.81;69.08;93698.75;526483;28;808;-41
2023/09/21 00:19:18;;;;;;;3.20;2.70;;;;;;;16.82;69.12;93703.78;526416;28;813;-41
2023/09/21 00:19:33;;;;;;;3.33;2.80;;;;;;;16.81;69.36;93701.56;526258;28;809;-41
2023/09/21 00:19:49;;;;;;;3.72;2.92;;;;;;;16.82;69.32;93700.25;526390;28;892;-41
2023/09/21 00:20:21;;;;;;;2.88;2.55;;;;;;;16.83;69.42;93705.22;526349;28;879;-41
2023/09/21 00:20:43;;;;;;;4.20;2.38;;;;;;;16.83;69.24;93702.44;526168;28;833;-41
2023/09/21 00:21:01;;;;;;;5.88;3.08;;;;;;;16.84;69.12;93697.59;526300;28;880;-41
2023/09/21 00:21:16;;;;;;;3.72;2.70;;;;;;;16.84;69.37;93694.81;526272;28;861;-41
2023/09/21 00:21:31;;;;;;;2.70;2.50;;;;;;;16.83;69.29;93687.78;526181;28;882;-41
2023/09/21 00:21:47;;;;;;;2.93;2.63;;;;;;;16.83;69.11;93693.38;526230;28;873;-41
2023/09/21 00:22:04;;;;;;;2.58;2.25;;;;;;;16.83;69.32;93698.94;526211;28;778;-41
2023/09/21 00:22:20;;;;;;;2.47;2.28;;;;;;;16.83;69.21;93696.88;526241;28;954;-41
2023/09/21 00:22:35;;;;;;;2.65;2.45;;;;;;;16.83;68.89;93694.06;526283;28;962;-41
2023/09/21 00:22:51;;;;;;;3.50;2.73;;;;;;;16.84;68.93;93694.81;526441;28;805;-41
2023/09/21 00:23:07;;;;;;;3.83;2.67;;;;;;;16.83;68.98;93699.66;526094;28;797;-41
2023/09/21 00:23:24;;;;;;;3.25;2.40;;;;;;;16.83;69.07;93693.38;526319;28;821;-41
2023/09/21 00:23:39;;;;;;;2.50;2.25;;;;;;;16.84;69.03;93700.41;526413;28;820;-41
2023/09/21 00:23:55;;;;;;;3.85;2.20;;;;;;;16.81;68.93;93688.34;526310;28;2011;-41
2023/09/21 00:24:12;;;;;;;4.63;2.40;;;;;;;16.82;69.14;93698.19;526395;28;848;-41
2023/09/21 00:24:30;;;;;;;2.83;2.35;;;;;;;16.83;69.00;93690.56;526385;28;825;-41
2023/09/21 00:24:45;;;;;;;2.75;2.35;;;;;;;16.83;69.22;93687.78;526356;28;809;-41
2023/09/21 00:25:04;;;;;;;4.20;2.78;;;;;;;16.80;69.07;93688.94;526366;28;900;-41
2023/09/21 00:25:22;;;;;;;3.53;2.65;;;;;;;16.83;69.26;93690.56;526204;28;868;-41
2023/09/21 00:25:38;;;;;;;2.53;2.33;;;;;;;16.80;69.27;93686.91;526156;28;876;-41
2023/09/21 00:25:58;;;;;;;2.55;2.20;;;;;;;16.84;69.18;93694.81;526155;28;895;-41
2023/09/21 00:26:14;;;;;;;2.88;2.47;;;;;;;16.84;69.30;93689.25;526120;28;884;-41
2023/09/21 00:26:30;;;;;;;3.10;2.70;;;;;;;16.84;69.45;93686.44;526150;28;975;-41
2023/09/21 00:26:49;;;;;;;3.65;2.60;;;;;;;16.83;69.42;93688.50;526199;28;850;-41
2023/09/21 00:27:07;;;;;;;2.92;2.45;;;;;;;16.84;69.58;93686.44;526456;28;1307;-41
2023/09/21 00:27:22;;;;;;;2.83;2.60;;;;;;;16.84;69.83;93694.81;528391;28;1634;-41
2023/09/21 00:27:39;;;;;;;3.00;2.67;;;;;;;16.84;69.81;93692.03;528478;28;855;-41
2023/09/21 00:27:54;;;;;;;2.65;2.45;;;;;;;16.82;69.71;93689.84;528299;28;1805;-41
2023/09/21 00:28:12;;;;;;;2.85;2.45;;;;;;;16.84;69.68;93692.03;528520;28;839;-40
2023/09/21 00:28:28;;;;;;;3.55;2.58;;;;;;;16.84;69.61;93695.56;528475;28;1580;-41
2023/09/21 00:28:44;;;;;;;2.85;2.28;;;;;;;16.84;69.73;93692.78;528414;28;896;-41
2023/09/21 00:29:02;;;;;;;2.90;2.20;;;;;;;16.84;69.76;93694.81;528510;28;798;-41
2023/09/21 00:29:17;;;;;;;2.90;2.40;;;;;;;16.85;69.60;93696.31;528531;28;848;-41
2023/09/21 00:29:34;;;;;;;2.53;2.33;;;;;;;16.84;69.62;93695.56;528488;28;777;-41
2023/09/21 00:29:50;;;;;;;2.70;2.47;;;;;;;16.84;69.57;93686.44;528508;28;937;-41
2023/09/21 00:30:06;;;;;;;2.87;2.50;;;;;;;16.85;69.69;93690.72;527782;28;1124;-41
2023/09/21 00:30:21;;;;;;;2.67;2.42;;;;;;;16.81;69.74;93688.34;526276;28;988;-41
2023/09/21 00:30:37;;;;;;;2.60;2.40;;;;;;;16.85;69.67;93690.72;526152;28;864;-41
2023/09/21 00:30:57;;;;;;;3.00;2.67;;;;;;;16.84;69.73;93684.41;526162;28;868;-41
2023/09/21 00:31:13;;;;;;;3.55;2.78;;;;;;;16.84;69.89;93681.63;526183;28;1601;-41
2023/09/21 00:31:29;;;;;;;2.95;2.63;;;;;;;16.85;69.88;93696.31;526218;28;970;-41
2023/09/21 00:31:44;;;;;;;2.90;2.60;;;;;;;16.85;69.83;93682.34;526218;28;869;-41
2023/09/21 00:31:59;;;;;;;3.03;2.50;;;;;;;16.85;69.94;93682.34;526196;28;904;-41
2023/09/21 00:32:15;;;;;;;2.58;2.38;;;;;;;16.86;69.71;93689.38;526201;28;810;-41
2023/09/21 00:32:30;;;;;;;2.57;2.30;;;;;;;16.87;69.73;93688.09;526223;28;884;-41
2023/09/21 00:32:47;;;;;;;3.43;2.30;;;;;;;16.85;69.80;93688.66;526422;28;1434;-41
2023/09/21 00:33:07;;;;;;;4.18;2.38;;;;;;;16.86;69.87;93692.91;526260;28;836;-41
2023/09/21 00:33:22;;;;;;;3.75;2.53;;;;;;;16.84;69.83;93692.78;526309;28;857;-41
2023/09/21 00:33:39;;;;;;;3.33;2.50;;;;;;;16.84;69.90;93687.19;526432;28;890;-41
2023/09/21 00:33:54;;;;;;;3.38;2.60;;;;;;;16.84;69.76;93686.44;526319;28;1084;-41
2023/09/21 00:34:11;;;;;;;2.83;2.50;;;;;;;16.84;69.88;93681.63;526433;28;867;-41
2023/09/21 00:34:27;;;;;;;3.20;2.22;;;;;;;16.83;70.03;93682.22;526350;28;821;-41
2023/09/21 00:34:43;;;;;;;3.40;2.20;;;;;;;16.83;70.00;93685.72;526295;28;871;-41
2023/09/21 00:34:58;;;;;;;4.03;2.38;;;;;;;16.84;70.04;93683.66;526456;28;899;-41
2023/09/21 00:35:15;;;;;;;3.73;2.23;;;;;;;16.85;69.80;93687.94;526270;28;861;-41
2023/09/21 00:35:31;;;;;;;2.75;2.20;;;;;;;16.84;69.89;93689.25;526323;28;1002;-41
2023/09/21 00:35:46;;;;;;;2.50;2.30;;;;;;;16.85;69.74;93687.94;526214;28;832;-41
2023/09/21 00:36:05;;;;;;;3.03;2.47;;;;;;;16.83;69.72;93688.50;527869;28;1065;-41
2023/09/21 00:36:21;;;;;;;3.45;2.40;;;;;;;16.82;69.74;93683.50;528424;28;849;-41
2023/09/21 00:36:42;;;;;;;3.15;2.38;;;;;;;16.82;69.87;93689.09;528462;28;908;-41
2023/09/21 00:36:58;;;;;;;3.10;2.35;;;;;;;16.82;69.67;93686.31;528549;28;831;-41
2023/09/21 00:37:17;;;;;;;2.60;2.40;;;;;;;16.83;69.68;93682.91;528393;28;864;-41
2023/09/21 00:37:32;;;;;;;2.60;2.40;;;;;;;16.83;69.76;93685.00;528412;28;871;-41
2023/09/21 00:37:47;;;;;;;3.13;2.30;;;;;;;16.83;69.58;93679.41;526896;28;2543;-41
2023/09/21 00:38:07;;;;;;;3.20;2.27;;;;;;;16.82;69.62;93684.25;526292;28;884;-41
2023/09/21 00:38:24;;;;;;;4.22;2.42;;;;;;;16.82;69.62;93687.03;526263;28;973;-41
2023/09/21 00:38:39;;;;;;;4.05;2.22;;;;;;;16.82;69.56;93684.25;526367;28;1642;-41
2023/09/21 00:38:55;;;;;;;2.50;2.25;;;;;;;16.83;69.47;93688.50;526358;28;828;-40
2023/09/21 00:39:11;;;;;;;2.67;2.27;;;;;;;16.83;69.49;93685.72;526358;28;896;-41
2023/09/21 00:39:27;;;;;;;2.38;2.13;;;;;;;16.82;69.43;93681.47;526288;28;905;-41
2023/09/21 00:39:42;;;;;;;3.27;2.37;;;;;;;16.83;69.40;93687.78;526305;28;864;-41
2023/09/21 00:39:57;;;;;;;3.53;2.63;;;;;;;16.82;69.40;93683.50;526389;28;856;-41
2023/09/21 00:40:19;;;;;;;2.92;2.63;;;;;;;16.82;69.55;93677.94;526254;28;852;-41
2023/09/21 00:40:38;;;;;;;2.65;2.28;;;;;;;16.83;69.65;93679.41;526306;28;895;-41
2023/09/21 00:40:58;;;;;;;2.70;2.50;;;;;;;16.83;69.62;93680.13;526241;28;864;-41
2023/09/21 00:41:13;;;;;;;2.88;2.47;;;;;;;16.84;69.71;93689.25;526237;28;884;-41
2023/09/21 00:41:31;;;;;;;3.15;2.40;;;;;;;16.84;69.54;93678.09;526325;28;880;-41
2023/09/21 00:41:47;;;;;;;2.83;2.38;;;;;;;16.84;69.56;93678.09;526375;28;896;-41
2023/09/21 00:42:03;;;;;;;2.58;2.20;;;;;;;16.84;69.09;93684.41;526309;28;932;-41
2023/09/21 00:42:18;;;;;;;2.37;2.00;;;;;;;16.83;69.12;93677.34;526432;28;810;-41
2023/09/21 00:42:34;;;;;;;2.53;2.30;;;;;;;16.84;69.01;93678.09;526238;28;963;-41
2023/09/21 00:42:53;;;;;;;4.22;2.55;;;;;;;16.83;69.21;93682.91;526443;28;841;-41
2023/09/21 00:43:12;;;;;;;4.45;2.50;;;;;;;16.83;69.20;93677.34;526285;28;1745;-41
2023/09/21 00:43:28;;;;;;;3.05;2.35;;;;;;;16.85;68.98;93679.56;526313;28;1714;-41
2023/09/21 00:43:44;;;;;;;2.92;2.15;;;;;;;16.84;69.01;93689.97;526315;28;884;-41
2023/09/21 00:44:08;;;;;;;2.88;2.10;;;;;;;16.85;69.10;93683.06;526318;28;1981;-41
2023/09/21 00:44:24;;;;;;;2.30;2.10;;;;;;;16.85;69.01;93676.78;526252;28;869;-41
2023/09/21 00:44:40;;;;;;;3.78;2.38;;;;;;;16.85;69.14;93683.06;526323;28;892;-41
2023/09/21 00:44:55;;;;;;;4.10;2.38;;;;;;;16.84;69.42;93678.09;526287;28;820;-41
2023/09/21 00:45:12;;;;;;;3.00;2.33;;;;;;;16.80;69.41;93663.84;526367;28;932;-40
2023/09/21 00:45:29;;;;;;;4.05;2.40;;;;;;;16.83;69.53;93680.13;526342;28;936;-41
2023/09/21 00:45:53;;;;;;;3.22;2.22;;;;;;;16.83;69.72;93679.41;526356;28;907;-41
2023/09/21 00:46:09;;;;;;;2.90;2.60;;;;;;;16.83;69.81;93668.25;526395;28;900;-41
2023/09/21 00:46:27;;;;;;;2.97;2.67;;;;;;;16.83;69.72;93677.34;526156;28;899;-41
2023/09/21 00:46:44;;;;;;;2.60;2.40;;;;;;;16.84;69.79;93678.09;526138;28;1034;-41
2023/09/21 00:47:00;;;;;;;2.72;2.53;;;;;;;16.83;69.48;93682.22;526282;28;888;-41
2023/09/21 00:47:16;;;;;;;3.00;2.70;;;;;;;16.84;69.49;93683.66;524040;28;846;-41
2023/09/21 00:47:31;;;;;;;3.13;2.60;;;;;;;16.82;69.51;93675.16;524054;28;1129;-41
2023/09/21 00:47:51;;;;;;;2.72;2.30;;;;;;;16.83;69.53;93679.41;524130;28;861;-41
2023/09/21 00:48:09;;;;;;;3.42;2.33;;;;;;;16.82;69.37;93680.72;524070;28;877;-41
2023/09/21 00:48:26;;;;;;;3.65;2.40;;;;;;;16.80;69.67;93681.31;523961;28;940;-41
2023/09/21 00:48:42;;;;;;;4.47;2.40;;;;;;;16.81;69.56;93679.97;523966;28;964;-41
2023/09/21 00:48:57;;;;;;;3.97;2.80;;;;;;;16.81;69.50;93677.19;522072;28;888;-41
2023/09/21 00:49:14;;;;;;;3.80;2.88;;;;;;;16.83;69.72;93676.63;523534;28;869;-41
2023/09/21 00:49:31;;;;;;;4.40;2.92;;;;;;;16.82;69.66;93677.94;521952;28;929;-41
2023/09/21 00:49:46;;;;;;;4.10;2.92;;;;;;;16.82;69.81;93683.50;522027;28;1097;-41
2023/09/21 00:50:06;;;;;;;3.23;2.50;;;;;;;16.82;69.69;93686.31;519961;28;841;-41
2023/09/21 00:50:23;;;;;;;2.50;2.30;;;;;;;16.78;69.78;93677.63;521744;28;877;-41
2023/09/21 00:50:41;;;;;;;2.78;2.53;;;;;;;16.82;69.86;93677.94;522082;28;850;-41
2023/09/21 00:50:58;;;;;;;3.83;2.70;;;;;;;16.82;69.75;93675.16;523782;28;925;-41
2023/09/21 00:51:13;;;;;;;4.00;2.78;;;;;;;16.81;69.90;93679.97;521920;28;1117;-41
2023/09/21 00:51:29;;;;;;;3.27;2.53;;;;;;;16.82;69.89;93675.16;524080;28;813;-41
2023/09/21 00:51:45;;;;;;;3.15;2.40;;;;;;;16.83;69.67;93685.00;523998;28;848;-41
2023/09/21 00:52:00;;;;;;;3.60;2.60;;;;;;;16.83;69.51;93682.22;525944;28;816;-41
2023/09/21 00:52:16;;;;;;;3.23;2.53;;;;;;;16.84;69.20;93683.66;526130;28;889;-41
2023/09/21 00:52:32;;;;;;;2.75;2.33;;;;;;;16.83;69.02;93687.78;526117;28;852;-41
2023/09/21 00:52:51;;;;;;;2.83;2.35;;;;;;;16.82;68.87;93687.03;526166;28;845;-41
2023/09/21 00:53:13;;;;;;;2.35;2.15;;;;;;;16.80;68.93;93681.31;526235;28;1012;-41
2023/09/21 00:53:28;;;;;;;3.03;2.20;;;;;;;16.80;68.92;93675.00;526243;28;915;-41
2023/09/21 00:53:45;;;;;;;2.80;2.47;;;;;;;16.79;68.99;93684.66;526154;28;844;-41
2023/09/21 00:54:07;;;;;;;3.47;2.45;;;;;;;16.78;69.15;93683.97;526222;28;884;-41
2023/09/21 00:54:22;;;;;;;3.30;2.50;;;;;;;16.78;69.40;93691.59;523979;28;991;-41
2023/09/21 00:54:40;;;;;;;2.40;2.20;;;;;;;16.78;69.39;93686.00;524084;28;877;-41
2023/09/21 00:54:55;;;;;;;4.20;2.22;;;;;;;16.77;69.10;93692.88;521914;28;940;-41
2023/09/21 00:55:23;;;;;;;4.53;2.50;;;;;;;16.75;69.34;93687.91;519976;28;846;-41
2023/09/21 00:55:40;;;;;;;3.88;2.72;;;;;;;16.74;69.25;93682.91;519940;28;1037;-41
2023/09/21 00:55:59;;;;;;;3.45;2.63;;;;;;;16.73;69.52;93673.81;519818;28;922;-41
2023/09/21 00:56:18;;;;;;;7.10;2.80;;;;;;;16.72;69.60;93674.41;519581;28;979;-41
2023/09/21 00:56:34;;;;;;;7.03;2.92;;;;;;;16.72;69.74;93683.47;519891;28;830;-41
2023/09/21 00:56:52;;;;;;;3.70;2.73;;;;;;;16.73;69.95;93675.84;521112;28;928;-41
2023/09/21 00:57:08;;;;;;;3.63;2.35;;;;;;;16.73;70.01;93682.19;523450;28;910;-41
2023/09/21 00:57:24;;;;;;;4.80;2.72;;;;;;;16.72;69.87;93682.78;524026;28;797;-41
2023/09/21 00:57:40;;;;;;;3.20;2.77;;;;;;;16.72;69.79;93680.69;526095;28;861;-41
2023/09/21 00:58:00;;;;;;;4.25;2.80;;;;;;;16.72;69.83;93680.69;526197;28;817;-41
2023/09/21 00:58:17;;;;;;;5.68;2.88;;;;;;;16.72;69.92;93679.97;526214;28;1381;-41
2023/09/21 00:58:33;;;;;;;3.20;2.50;;;;;;;16.72;70.12;93685.56;526168;28;945;-41
2023/09/21 00:58:50;;;;;;;3.05;2.72;;;;;;;16.71;70.05;93682.03;526201;28;789;-41
2023/09/21 00:59:06;;;;;;;3.17;2.63;;;;;;;16.70;70.20;93674.97;526164;28;1564;-41
2023/09/21 00:59:21;;;;;;;3.33;2.43;;;;;;;16.69;69.96;93679.09;526131;28;877;-41
2023/09/21 00:59:39;;;;;;;3.20;2.53;;;;;;;16.70;69.91;93683.34;524089;28;905;-41
2023/09/21 00:59:54;;;;;;;2.42;2.22;;;;;;;16.70;69.90;93682.63;524023;28;838;-41
2023/09/21 01:00:15;;;;;;;3.00;2.47;;;;;;;16.70;69.72;93677.03;524061;28;809;-41
2023/09/21 01:00:31;;;;;;;2.85;2.28;;;;;;;16.70;69.92;93682.63;521917;28;1016;-41
2023/09/21 01:00:48;;;;;;;2.58;2.30;;;;;;;16.66;69.78;93675.41;522016;28;921;-41
2023/09/21 01:01:05;;;;;;;2.75;2.45;;;;;;;16.70;69.89;93672.19;521852;28;932;-41
2023/09/21 01:01:23;;;;;;;4.38;2.58;;;;;;;16.70;69.94;93677.75;521989;28;853;-41
2023/09/21 01:01:38;;;;;;;3.33;2.42;;;;;;;16.70;70.01;93677.03;524019;28;928;-41
2023/09/21 01:01:54;;;;;;;3.13;2.50;;;;;;;16.71;69.98;93686.84;523950;28;1546;-41
2023/09/21 01:02:11;;;;;;;2.95;2.38;;;;;;;16.72;70.02;93677.91;524141;28;833;-41
2023/09/21 01:02:27;;;;;;;2.38;2.17;;;;;;;16.72;69.94;93682.78;526142;28;880;-41
2023/09/21 01:02:43;;;;;;;3.30;2.40;;;;;;;16.71;69.95;93676.44;526144;28;770;-41
2023/09/21 01:03:07;;;;;;;4.10;2.20;;;;;;;16.72;69.96;93677.19;526289;28;825;-41
2023/09/21 01:03:27;;;;;;;3.72;2.33;;;;;;;16.70;69.97;93683.34;526257;28;1733;-41
2023/09/21 01:03:43;;;;;;;3.25;2.50;;;;;;;16.67;70.00;93676.88;526235;28;900;-41
2023/09/21 01:04:06;;;;;;;3.13;2.83;;;;;;;16.70;70.14;93686.13;526250;28;1926;-41
2023/09/21 01:04:21;;;;;;;2.50;2.30;;;;;;;16.70;70.03;93677.03;526247;28;868;-40
2023/09/21 01:04:37;;;;;;;2.35;2.10;;;;;;;16.71;70.08;93681.28;526332;28;863;-41
2023/09/21 01:04:52;;;;;;;2.78;2.22;;;;;;;16.70;69.98;93677.03;526219;28;912;-41
2023/09/21 01:05:09;;;;;;;2.53;2.17;;;;;;;16.69;69.96;93676.31;526165;28;1555;-41
2023/09/21 01:05:24;;;;;;;3.20;2.35;;;;;;;16.71;69.88;93681.28;523909;28;963;-41
2023/09/21 01:05:41;;;;;;;4.10;2.40;;;;;;;16.66;70.05;93674.66;524052;28;884;-41
2023/09/21 01:05:59;;;;;;;3.08;2.15;;;;;;;16.70;70.03;93671.47;524004;28;967;-41
2023/09/21 01:06:18;;;;;;;2.92;2.20;;;;;;;16.70;70.03;93677.03;523958;28;949;-41
2023/09/21 01:06:33;;;;;;;3.72;2.40;;;;;;;16.65;69.99;93671.13;523942;28;877;-41
2023/09/21 01:06:50;;;;;;;3.42;2.50;;;;;;;16.71;70.09;93681.28;524065;28;866;-41
2023/09/21 01:07:17;;;;;;;2.90;2.63;;;;;;;16.70;70.10;93679.84;525812;28;813;-41
2023/09/21 01:07:35;;;;;;;2.63;2.20;;;;;;;16.68;69.93;93681.13;526244;28;895;-41
2023/09/21 01:07:51;;;;;;;2.72;2.53;;;;;;;16.70;69.93;93677.75;526231;28;872;-41
2023/09/21 01:08:11;;;;;;;3.17;2.63;;;;;;;16.70;70.00;93677.75;526333;28;841;-41
2023/09/21 01:08:29;;;;;;;2.72;2.45;;;;;;;16.71;69.95;93684.81;526245;28;1773;-41
2023/09/21 01:08:44;;;;;;;2.83;2.50;;;;;;;16.69;70.12;93679.09;526190;28;873;-41
2023/09/21 01:09:01;;;;;;;3.25;2.28;;;;;;;16.70;70.21;93690.97;526291;28;984;-40
2023/09/21 01:09:17;;;;;;;3.30;2.55;;;;;;;16.69;70.12;93681.88;526054;28;1765;-41
2023/09/21 01:09:32;;;;;;;3.10;2.78;;;;;;;16.69;70.21;93687.44;526102;28;888;-41
2023/09/21 01:09:50;;;;;;;3.03;2.33;;;;;;;16.63;70.32;93673.78;526201;28;860;-41
2023/09/21 01:10:07;;;;;;;3.03;2.70;;;;;;;16.68;70.53;93678.34;526072;28;833;-41
2023/09/21 01:10:24;;;;;;;4.30;2.97;;;;;;;16.68;70.57;93683.19;526077;28;904;-41
2023/09/21 01:10:49;;;;;;;5.45;2.92;;;;;;;16.69;70.59;93679.09;526107;28;1013;-41
2023/09/21 01:11:09;;;;;;;3.53;2.80;;;;;;;16.70;70.47;93680.53;526097;28;814;-41
2023/09/21 01:11:25;;;;;;;4.68;2.95;;;;;;;16.72;70.88;93682.78;526005;28;920;-41
2023/09/21 01:11:40;;;;;;;4.57;3.03;;;;;;;16.71;70.76;93675.72;524056;28;878;-41
2023/09/21 01:11:59;;;;;;;2.90;2.60;;;;;;;16.73;70.79;93678.66;524007;28;1634;-41
2023/09/21 01:12:15;;;;;;;3.08;2.60;;;;;;;16.72;70.74;93682.78;523954;28;947;-41
2023/09/21 01:12:33;;;;;;;4.50;2.73;;;;;;;16.73;70.74;93681.44;525585;28;1643;-41
2023/09/21 01:12:49;;;;;;;4.47;2.63;;;;;;;16.73;70.72;93676.59;524103;28;876;-41
2023/09/21 01:13:06;;;;;;;3.40;2.67;;;;;;;16.73;70.62;93684.97;523976;28;860;-41
2023/09/21 01:13:25;;;;;;;3.70;2.65;;;;;;;16.74;70.50;93680.13;525972;28;937;-41
2023/09/21 01:13:41;;;;;;;5.45;2.60;;;;;;;16.76;70.53;93671.91;528015;28;947;-41
2023/09/21 01:13:56;;;;;;;3.42;2.40;;;;;;;16.72;70.53;93671.63;528225;28;1059;-41
2023/09/21 01:14:12;;;;;;;2.73;2.53;;;;;;;16.77;70.54;93676.91;528205;28;888;-41
2023/09/21 01:14:27;;;;;;;3.50;2.73;;;;;;;16.78;70.51;93680.44;528251;28;987;-41
2023/09/21 01:14:43;;;;;;;3.80;2.88;;;;;;;16.78;70.48;93674.84;528279;28;844;-41
2023/09/21 01:15:04;;;;;;;5.25;2.92;;;;;;;16.67;70.21;93660.13;528404;28;919;-41
2023/09/21 01:15:21;;;;;;;6.15;2.47;;;;;;;16.79;70.05;93684.66;528194;28;823;-41
2023/09/21 01:15:37;;;;;;;3.13;2.30;;;;;;;16.80;70.01;93680.56;526075;28;952;-41
2023/09/21 01:16:02;;;;;;;2.92;2.33;;;;;;;16.79;70.13;93688.19;526061;28;969;-41
2023/09/21 01:16:18;;;;;;;5.45;3.13;;;;;;;16.79;70.10;93685.41;525943;28;896;-41
2023/09/21 01:16:33;;;;;;;3.13;2.80;;;;;;;16.77;69.97;93688.06;526045;28;929;-41
2023/09/21 01:16:50;;;;;;;3.00;2.70;;;;;;;16.77;69.66;93690.09;526189;28;818;-41
2023/09/21 01:17:05;;;;;;;3.00;2.80;;;;;;;16.74;69.78;93691.28;526097;28;975;-41
2023/09/21 01:17:21;;;;;;;3.05;2.58;;;;;;;16.73;69.87;93684.97;528194;28;883;-41
2023/09/21 01:17:41;;;;;;;3.60;2.70;;;;;;;16.71;69.89;93687.59;528337;28;904;-41
2023/09/21 01:17:56;;;;;;;4.13;2.80;;;;;;;16.67;70.14;93688.03;528421;28;912;-41
2023/09/21 01:18:16;;;;;;;5.13;2.90;;;;;;;16.70;70.04;93682.63;528286;28;908;-41
2023/09/21 01:18:34;;;;;;;3.22;2.80;;;;;;;16.69;70.19;93690.25;528391;28;907;-41
2023/09/21 01:18:52;;;;;;;2.65;2.30;;;;;;;16.69;70.44;93690.25;528392;28;821;-41
2023/09/21 01:19:08;;;;;;;3.75;2.40;;;;;;;16.69;70.62;93687.44;528441;28;888;-41
2023/09/21 01:19:23;;;;;;;4.47;2.90;;;;;;;16.59;70.67;93672.75;528209;28;1474;-41
2023/09/21 01:19:39;;;;;;;4.30;2.93;;;;;;;16.70;70.73;93690.97;528329;28;833;-41
2023/09/21 01:19:54;;;;;;;4.20;2.80;;;;;;;16.68;70.67;93685.97;528357;28;856;-41
2023/09/21 01:20:23;;;;;;;3.40;2.77;;;;;;;16.69;70.94;93684.66;528367;28;907;-41
2023/09/21 01:20:41;;;;;;;3.30;2.85;;;;;;;16.69;71.10;93684.66;528425;28;900;-41
2023/09/21 01:21:00;;;;;;;3.05;2.75;;;;;;;16.69;71.18;93681.88;528377;28;836;-41
2023/09/21 01:21:17;;;;;;;3.70;2.45;;;;;;;16.68;71.18;93683.19;528155;28;891;-41
2023/09/21 01:21:40;;;;;;;4.45;2.63;;;;;;;16.69;71.45;93695.81;528176;28;896;-41
2023/09/21 01:21:59;;;;;;;3.88;2.72;;;;;;;16.69;71.55;93690.25;526031;28;964;-41
2023/09/21 01:22:15;;;;;;;3.20;2.58;;;;;;;16.69;71.52;93695.81;525978;28;953;-41
2023/09/21 01:22:30;;;;;;;4.10;2.90;;;;;;;16.70;71.52;93693.78;523979;28;873;-41
2023/09/21 01:23:12;;;;;;;3.72;2.80;;;;;;;16.68;71.44;93697.13;521935;28;829;-41
2023/09/21 01:23:42;;;;;;;5.03;2.60;;;;;;;16.70;71.70;93693.78;523725;28;1100;-41